Time;durP1;ratioP1;P1;durP2;ratioP2;P2;SDS_P1;SDS_P2;PMS_P1;PMS_P2;Temp;Humidity;BMP_temperature;BMP_pressure;BME280_temperature;BME280_humidity;BME280_pressure;Samples;Min_cycle;Max_cycle;Signal;HPM_P1;HPM_P2
2023/07/25 00:01:33;;;;;;;;;;;;;;;17.90;55.88;100602.88;4855745;28;119744;-70
2023/07/25 00:04:01;;;;;;;;;;;;;;;17.87;55.91;100602.28;4850070;29;117871;-70
2023/07/25 00:06:29;;;;;;;;;;;;;;;17.83;56.04;100606.13;4846191;29;125100;-69
2023/07/25 00:08:56;;;;;;;;;;;;;;;17.80;56.03;100606.38;4843019;29;123953;-69
2023/07/25 00:11:23;;;;;;;;;;;;;;;17.77;55.82;100612.84;4850029;29;119532;-69
2023/07/25 00:13:50;;;;;;;;;;;;;;;17.73;55.85;100615.91;4854389;29;118977;-69
2023/07/25 00:16:17;;;;;;;;;;;;;;;17.69;55.87;100615.28;4858499;28;125765;-69
2023/07/25 00:18:45;;;;;;;;;;;;;;;17.65;56.16;100614.66;4859981;28;123253;-69
2023/07/25 00:21:12;;;;;;;;;;;;;;;17.62;56.01;100614.91;4850664;28;121076;-69
2023/07/25 00:23:39;;;;;;;;;;;;;;;17.59;56.00;100609.75;4851892;28;120595;-69
2023/07/25 00:26:06;;;;;;;;;;;;;;;17.57;55.89;100617.06;4848864;28;124827;-69
2023/07/25 00:28:33;;;;;;;;;;;;;;;17.55;56.13;100610.97;4848948;28;124395;-68
2023/07/25 00:31:07;;;;;;;;;;;;;;;17.51;56.16;100612.19;4826282;29;118767;-69
2023/07/25 00:33:34;;;;;;;;;;;;;;;17.49;56.09;100608.78;4851457;28;119072;-69
2023/07/25 00:36:01;;;;;;;;;;;;;;;17.47;56.04;100610.75;4856414;29;124509;-69
2023/07/25 00:38:28;;;;;;;;;;;;;;;17.44;55.88;100602.94;4850681;28;124044;-69
2023/07/25 00:40:55;;;;;;;;;;;;;;;17.42;55.97;100607.56;4853965;29;119584;-69
2023/07/25 00:43:22;;;;;;;;;;;;;;;17.38;56.02;100600.75;4852889;29;118958;-69
2023/07/25 00:45:49;;;;;;;;;;;;;;;17.36;55.90;100605.38;4853901;29;123815;-69
2023/07/25 00:48:16;;;;;;;;;;;;;;;17.32;56.07;100613.63;4848113;28;124128;-69
2023/07/25 00:50:44;;;;;;;;;;;;;;;17.26;55.96;100603.41;4852959;29;118598;-69
2023/07/25 00:53:12;;;;;;;;;;;;;;;17.24;55.99;100609.84;4854174;28;118857;-69
2023/07/25 00:55:40;;;;;;;;;;;;;;;17.22;56.12;100612.63;4850978;29;123252;-69
2023/07/25 00:58:07;;;;;;;;;;;;;;;17.20;56.12;100614.59;4850096;28;123187;-69
2023/07/25 01:00:36;;;;;;;;;;;;;;;17.19;55.99;100612.88;4851575;28;119793;-69
2023/07/25 01:03:03;;;;;;;;;;;;;;;17.16;56.09;100602.41;4849848;28;119135;-69
2023/07/25 01:05:34;;;;;;;;;;;;;;;17.15;56.17;100611.41;4854620;28;123891;-69
2023/07/25 01:08:01;;;;;;;;;;;;;;;17.14;56.13;100604.34;4856047;28;124384;-69
2023/07/25 01:10:28;;;;;;;;;;;;;;;17.12;56.22;100606.28;4849708;28;120736;-69
2023/07/25 01:12:55;;;;;;;;;;;;;;;17.10;56.21;100613.56;4851277;28;119425;-69
2023/07/25 01:15:23;;;;;;;;;;;;;;;17.08;56.14;100615.50;4853153;28;124420;-69
2023/07/25 01:17:50;;;;;;;;;;;;;;;17.05;56.13;100605.06;4849985;28;122795;-69
2023/07/25 01:20:17;;;;;;;;;;;;;;;17.03;56.21;100601.66;4850263;29;119665;-69
2023/07/25 01:22:45;;;;;;;;;;;;;;;17.02;56.06;100610.63;4849448;29;118848;-69
2023/07/25 01:25:13;;;;;;;;;;;;;;;16.99;56.17;100605.50;4854733;28;123690;-69
2023/07/25 01:27:40;;;;;;;;;;;;;;;16.97;56.25;100612.78;4851783;29;124362;-69
2023/07/25 01:30:08;;;;;;;;;;;;;;;16.93;56.30;100602.34;4852863;28;119394;-69
2023/07/25 01:32:40;;;;;;;;;;;;;;;16.91;56.02;100598.94;4854654;29;118612;-69
2023/07/25 01:35:08;;;;;;;;;;;;;;;16.88;56.24;100596.47;4855254;28;125276;-69
2023/07/25 01:37:35;;;;;;;;;;;;;;;16.86;56.05;100600.25;4854841;28;124410;-69
2023/07/25 01:40:02;;;;;;;;;;;;;;;16.84;56.29;100603.03;4849737;29;118672;-69
2023/07/25 01:42:29;;;;;;;;;;;;;;;16.80;56.13;100596.19;4832466;29;117181;-69
2023/07/25 01:44:56;;;;;;;;;;;;;;;16.78;56.23;100587.38;4848761;29;124694;-69
2023/07/25 01:47:25;;;;;;;;;;;;;;;16.77;56.27;100591.06;4855047;28;124993;-69
2023/07/25 01:49:53;;;;;;;;;;;;;;;16.75;56.19;100582.28;4846130;28;118638;-69
2023/07/25 01:52:21;;;;;;;;;;;;;;;16.72;56.21;100579.84;4849041;28;97892;-69
2023/07/25 01:54:49;;;;;;;;;;;;;;;16.69;56.29;100582.75;4842636;29;124713;-69
2023/07/25 01:57:17;;;;;;;;;;;;;;;16.66;56.36;100577.63;4848779;28;124221;-69
2023/07/25 01:59:44;;;;;;;;;;;;;;;16.65;56.35;100578.59;4846422;29;119781;-69
2023/07/25 02:02:11;;;;;;;;;;;;;;;16.64;56.34;100579.56;4850310;29;119099;-69
2023/07/25 02:04:38;;;;;;;;;;;;;;;16.61;56.19;100579.78;4844268;29;123979;-69
2023/07/25 02:07:05;;;;;;;;;;;;;;;16.60;56.19;100572.75;4854027;29;123808;-69
2023/07/25 02:09:32;;;;;;;;;;;;;;;16.59;56.34;100582.56;4842548;28;118601;-69
2023/07/25 02:12:00;;;;;;;;;;;;;;;16.57;56.22;100578.31;4848958;29;117922;-69
2023/07/25 02:14:27;;;;;;;;;;;;;;;16.55;56.30;100576.59;4849058;28;123430;-69
2023/07/25 02:16:54;;;;;;;;;;;;;;;16.53;56.20;100583.88;4849046;29;123174;-69
2023/07/25 02:19:21;;;;;;;;;;;;;;;16.48;56.26;100578.03;4858442;28;118417;-69
2023/07/25 02:21:48;;;;;;;;;;;;;;;16.46;56.27;100579.09;4842666;29;118087;-69
2023/07/25 02:24:15;;;;;;;;;;;;;;;16.43;56.19;100582.88;4851304;29;124411;-69
2023/07/25 02:26:42;;;;;;;;;;;;;;;16.41;56.34;100574.13;4839406;29;122951;-69
2023/07/25 02:29:09;;;;;;;;;;;;;;;16.40;56.31;100577.75;4849739;29;118870;-69
2023/07/25 02:31:36;;;;;;;;;;;;;;;16.39;56.42;100565.34;4847271;29;118703;-69
2023/07/25 02:34:03;;;;;;;;;;;;;;;16.37;56.44;100567.28;4845252;28;123215;-69
2023/07/25 02:36:30;;;;;;;;;;;;;;;16.38;56.30;100563.63;4844812;29;122888;-69
2023/07/25 02:38:57;;;;;;;;;;;;;;;16.37;56.51;100564.63;4845256;29;119651;-69
2023/07/25 02:41:25;;;;;;;;;;;;;;;16.36;56.46;100562.91;4852971;29;117931;-69
2023/07/25 02:43:52;;;;;;;;;;;;;;;16.34;56.49;100568.34;4849746;29;125291;-69
2023/07/25 02:46:19;;;;;;;;;;;;;;;16.33;56.26;100571.13;4841438;28;124079;-69
2023/07/25 02:48:46;;;;;;;;;;;;;;;16.33;56.45;100572.00;4850037;29;120321;-69
2023/07/25 02:51:13;;;;;;;;;;;;;;;16.31;56.27;100570.41;4850143;28;119316;-69
2023/07/25 02:53:41;;;;;;;;;;;;;;;16.28;56.22;100573.31;4845828;28;124414;-69
2023/07/25 02:56:08;;;;;;;;;;;;;;;16.27;56.34;100566.25;4835492;28;122934;-69
2023/07/25 02:58:35;;;;;;;;;;;;;;;16.26;56.25;100575.25;4846802;28;119725;-69
2023/07/25 03:01:02;;;;;;;;;;;;;;;16.23;56.42;100575.47;4839421;29;118106;-69
2023/07/25 03:03:31;;;;;;;;;;;;;;;16.22;56.29;100568.41;4850405;28;123826;-69
2023/07/25 03:05:58;;;;;;;;;;;;;;;16.19;56.38;100563.28;4849170;28;124991;-69
2023/07/25 03:08:27;;;;;;;;;;;;;;;16.17;56.22;100565.22;4853160;28;118513;-69
2023/07/25 03:10:54;;;;;;;;;;;;;;;16.14;56.40;100564.50;4844891;29;119304;-69
2023/07/25 03:13:21;;;;;;;;;;;;;;;16.12;56.35;100562.88;4850173;28;124374;-69
2023/07/25 03:15:50;;;;;;;;;;;;;;;16.09;56.46;100569.31;4850368;29;123487;-69
2023/07/25 03:18:17;;;;;;;;;;;;;;;16.07;56.45;100568.56;4845889;29;119927;-68
2023/07/25 03:20:44;;;;;;;;;;;;;;;16.05;56.52;100567.84;4849150;28;118834;-69
2023/07/25 03:23:11;;;;;;;;;;;;;;;16.04;56.45;100566.09;4841947;29;124447;-68
2023/07/25 03:25:38;;;;;;;;;;;;;;;16.03;56.54;100580.44;4849059;29;124964;-68
2023/07/25 03:28:05;;;;;;;;;;;;;;;16.00;56.47;100569.97;4844932;29;119859;-69
2023/07/25 03:30:32;;;;;;;;;;;;;;;15.98;56.39;100574.56;4840622;28;118955;-68
2023/07/25 03:33:00;;;;;;;;;;;;;;;15.97;56.50;100564.84;4850137;28;124739;-68
2023/07/25 03:35:27;;;;;;;;;;;;;;;15.94;56.31;100559.75;4847590;29;125085;-68
2023/07/25 03:37:55;;;;;;;;;;;;;;;15.92;56.34;100572.34;4846789;29;121296;-68
2023/07/25 03:40:23;;;;;;;;;;;;;;;15.89;56.58;100572.56;4849102;28;118781;-69
2023/07/25 03:42:50;;;;;;;;;;;;;;;15.87;56.51;100574.50;4840718;29;124060;-68
2023/07/25 03:45:17;;;;;;;;;;;;;;;15.85;56.42;100574.59;4851202;28;123823;-69
2023/07/25 03:47:44;;;;;;;;;;;;;;;15.84;56.41;100574.69;4837282;29;118444;-68
2023/07/25 03:50:11;;;;;;;;;;;;;;;15.82;56.55;100572.13;4849170;29;118377;-69
2023/07/25 03:52:39;;;;;;;;;;;;;;;15.81;56.53;100574.94;4845181;28;123538;-69
2023/07/25 03:55:06;;;;;;;;;;;;;;;15.81;56.42;100573.13;4848616;28;124179;-69
2023/07/25 03:57:34;;;;;;;;;;;;;;;15.79;56.38;100572.38;4852796;28;120169;-69
2023/07/25 04:00:01;;;;;;;;;;;;;;;15.79;56.54;100576.88;4859370;28;119787;-69
2023/07/25 04:02:37;;;;;;;;;;;;;;;15.76;56.66;100578.78;4844216;28;125030;-68
2023/07/25 04:05:07;;;;;;;;;;;;;;;15.75;56.46;100571.72;4849606;29;123150;-69
2023/07/25 04:07:34;;;;;;;;;;;;;;;15.74;56.55;100574.50;4852323;28;118448;-69
2023/07/25 04:10:02;;;;;;;;;;;;;;;15.74;56.62;100575.34;4850435;29;118715;-69
2023/07/25 04:12:29;;;;;;;;;;;;;;;15.73;56.60;100573.66;4852400;28;123430;-69
2023/07/25 04:14:56;;;;;;;;;;;;;;;15.73;56.67;100562.97;4852076;29;123038;-69
2023/07/25 04:17:23;;;;;;;;;;;;;;;15.73;56.47;100573.66;4836112;29;118503;-68
2023/07/25 04:19:50;;;;;;;;;;;;;;;15.73;56.65;100568.31;4852060;28;117788;-69
2023/07/25 04:22:17;;;;;;;;;;;;;;;15.74;56.67;100569.16;4851477;29;124168;-69
2023/07/25 04:24:44;;;;;;;;;;;;;;;15.74;56.71;100562.00;4852579;28;122738;-69
2023/07/25 04:27:11;;;;;;;;;;;;;;;15.74;56.60;100564.66;4851775;28;120180;-69
2023/07/25 04:29:39;;;;;;;;;;;;;;;15.74;56.50;100570.00;4849678;28;119681;-69
2023/07/25 04:32:06;;;;;;;;;;;;;;;15.75;56.74;100577.06;4849096;29;124122;-69
2023/07/25 04:34:33;;;;;;;;;;;;;;;15.76;56.62;100572.56;4852663;29;124884;-68
2023/07/25 04:37:00;;;;;;;;;;;;;;;15.76;56.76;100568.13;4855203;29;119715;-69
2023/07/25 04:39:27;;;;;;;;;;;;;;;15.78;56.73;100570.66;4851359;28;118392;-69
2023/07/25 04:41:54;;;;;;;;;;;;;;;15.80;56.62;100573.22;4854263;28;124085;-69
2023/07/25 04:44:21;;;;;;;;;;;;;;;15.82;56.87;100576.63;4856453;29;123992;-69
2023/07/25 04:46:48;;;;;;;;;;;;;;;15.85;56.71;100581.75;4851593;29;118018;-69
2023/07/25 04:49:16;;;;;;;;;;;;;;;15.88;56.94;100582.41;4831452;29;117659;-69
2023/07/25 04:51:44;;;;;;;;;;;;;;;15.90;57.00;100571.63;4858643;28;124525;-69
2023/07/25 04:54:11;;;;;;;;;;;;;;;15.94;56.85;100575.75;4844180;28;123209;-69
2023/07/25 04:56:40;;;;;;;;;;;;;;;15.98;56.85;100582.59;4843720;29;118632;-69
2023/07/25 04:59:08;;;;;;;;;;;;;;;16.03;56.79;100575.09;4848296;29;118944;-69
2023/07/25 05:01:36;;;;;;;;;;;;;;;16.07;56.96;100570.41;4846023;28;123510;-69
2023/07/25 05:04:04;;;;;;;;;;;;;;;16.11;57.05;100570.03;4847697;29;124803;-69
2023/07/25 05:06:32;;;;;;;;;;;;;;;16.16;57.05;100575.03;4856669;29;119267;-69
2023/07/25 05:08:59;;;;;;;;;;;;;;;16.22;56.94;100571.06;4854888;28;118546;-69
2023/07/25 05:11:26;;;;;;;;;;;;;;;16.28;56.97;100581.34;4847315;28;123222;-69
2023/07/25 05:13:53;;;;;;;;;;;;;;;16.32;56.96;100580.13;4848797;29;123883;-69
2023/07/25 05:16:20;;;;;;;;;;;;;;;16.35;56.87;100574.56;4851242;28;120567;-69
2023/07/25 05:18:47;;;;;;;;;;;;;;;16.37;56.84;100577.97;4847966;29;119475;-69
2023/07/25 05:21:15;;;;;;;;;;;;;;;16.40;57.01;100572.41;4848245;28;123508;-69
2023/07/25 05:23:42;;;;;;;;;;;;;;;16.43;56.91;100574.84;4852858;28;123356;-69
2023/07/25 05:26:09;;;;;;;;;;;;;;;16.47;56.90;100579.00;4845788;29;120072;-69
2023/07/25 05:28:36;;;;;;;;;;;;;;;16.51;56.95;100567.09;4853920;29;117953;-69
2023/07/25 05:31:03;;;;;;;;;;;;;;;16.55;57.18;100571.25;4848573;28;124519;-69
2023/07/25 05:33:30;;;;;;;;;;;;;;;16.63;57.14;100572.50;4844131;29;123019;-69
2023/07/25 05:36:04;;;;;;;;;;;;;;;16.70;57.12;100563.91;4852236;28;119757;-69
2023/07/25 05:38:31;;;;;;;;;;;;;;;16.79;57.06;100573.06;4856083;28;118649;-69
2023/07/25 05:40:58;;;;;;;;;;;;;;;16.86;57.10;100574.34;4852807;28;124608;-69
2023/07/25 05:43:25;;;;;;;;;;;;;;;16.93;57.07;100575.59;4854314;28;123045;-70
2023/07/25 05:45:52;;;;;;;;;;;;;;;16.99;57.08;100568.91;4845710;29;120024;-68
2023/07/25 05:48:19;;;;;;;;;;;;;;;17.07;57.20;100577.19;4854884;28;119315;-69
2023/07/25 05:50:50;;;;;;;;;;;;;;;17.15;57.01;100573.94;4851153;28;124332;-69
2023/07/25 05:53:17;;;;;;;;;;;;;;;17.25;57.01;100580.31;4852682;29;125019;-69
2023/07/25 05:55:45;;;;;;;;;;;;;;;17.32;57.09;100576.16;4853934;29;120505;-69
2023/07/25 05:58:16;;;;;;;;;;;;;;;17.41;57.13;100582.63;4854510;28;117938;-69
2023/07/25 06:00:44;;;;;;;;;;;;;;;17.50;57.16;100579.22;4853249;29;124612;-69
2023/07/25 06:03:12;;;;;;;;;;;;;;;17.59;56.99;100583.00;4862456;28;124292;-69
2023/07/25 06:05:41;;;;;;;;;;;;;;;17.68;57.12;100590.28;4846238;29;120687;-70
2023/07/25 06:08:09;;;;;;;;;;;;;;;17.78;57.15;100592.25;4853816;28;119181;-69
2023/07/25 06:10:36;;;;;;;;;;;;;;;17.88;57.20;100594.13;4852705;29;124232;-69
2023/07/25 06:13:04;;;;;;;;;;;;;;;17.98;57.18;100594.22;4851686;29;123730;-69
2023/07/25 06:15:34;;;;;;;;;;;;;;;18.06;57.05;100589.13;4852679;29;119364;-69
2023/07/25 06:18:02;;;;;;;;;;;;;;;18.16;57.13;100597.25;4853957;28;118209;-69
2023/07/25 06:20:30;;;;;;;;;;;;;;;18.24;57.05;100593.97;4851162;28;124684;-69
2023/07/25 06:22:57;;;;;;;;;;;;;;;18.33;57.06;100593.22;4852617;29;124182;-69
2023/07/25 06:25:29;;;;;;;;;;;;;;;18.38;57.06;100596.34;4842121;29;118409;-69
2023/07/25 06:27:56;;;;;;;;;;;;;;;18.45;57.00;100592.19;4853171;29;118903;-69
2023/07/25 06:30:23;;;;;;;;;;;;;;;18.52;57.03;100597.06;4852097;28;123938;-69
2023/07/25 06:32:51;;;;;;;;;;;;;;;18.61;56.82;100590.91;4852179;28;124051;-69
2023/07/25 06:35:24;;;;;;;;;;;;;;;18.68;57.00;100592.13;4850911;28;119424;-69
2023/07/25 06:37:51;;;;;;;;;;;;;;;18.74;56.99;100591.63;4852129;28;119833;-69
2023/07/25 06:40:18;;;;;;;;;;;;;;;18.80;57.04;100585.78;4850411;28;124628;-69
2023/07/25 06:42:45;;;;;;;;;;;;;;;18.86;56.88;100590.63;4849370;28;123635;-69
2023/07/25 06:45:14;;;;;;;;;;;;;;;18.89;56.56;100588.66;4846981;28;118656;-69
2023/07/25 06:47:41;;;;;;;;;;;;;;;18.87;56.63;100591.47;4841650;29;117972;-68
2023/07/25 06:50:08;;;;;;;;;;;;;;;18.86;56.64;100585.25;4849215;29;124321;-69
2023/07/25 06:52:35;;;;;;;;;;;;;;;18.86;56.60;100585.25;4851983;29;124243;-68
2023/07/25 06:55:02;;;;;;;;;;;;;;;18.86;56.67;100590.63;4852451;28;121295;-68
2023/07/25 06:57:29;;;;;;;;;;;;;;;18.88;56.59;100597.69;4854207;29;119780;-68
2023/07/25 06:59:56;;;;;;;;;;;;;;;18.91;56.77;100597.41;4838557;28;124992;-69
2023/07/25 07:02:23;;;;;;;;;;;;;;;18.96;56.74;100603.25;4848227;29;124657;-68
2023/07/25 07:04:50;;;;;;;;;;;;;;;19.00;56.77;100612.75;4853646;28;119790;-68
2023/07/25 07:07:17;;;;;;;;;;;;;;;19.06;56.83;100606.84;4850760;29;118434;-68
2023/07/25 07:09:45;;;;;;;;;;;;;;;19.11;56.88;100610.00;4848748;28;124919;-69
2023/07/25 07:12:12;;;;;;;;;;;;;;;19.15;56.89;100614.13;4857979;28;124213;-68
2023/07/25 07:14:40;;;;;;;;;;;;;;;19.21;56.65;100608.25;4847194;29;119001;-68
2023/07/25 07:17:07;;;;;;;;;;;;;;;19.26;56.66;100603.31;4843179;29;118508;-68
2023/07/25 07:19:35;;;;;;;;;;;;;;;19.35;56.95;100608.91;4849256;28;124567;-68
2023/07/25 07:22:02;;;;;;;;;;;;;;;19.44;56.88;100616.19;4848161;29;124722;-68
2023/07/25 07:24:29;;;;;;;;;;;;;;;19.50;56.93;100615.66;4844097;28;119345;-69
2023/07/25 07:26:56;;;;;;;;;;;;;;;19.61;56.87;100607.50;4847885;29;118929;-68
2023/07/25 07:29:23;;;;;;;;;;;;;;;19.73;56.97;100615.50;4848602;28;124154;-68
2023/07/25 07:31:50;;;;;;;;;;;;;;;19.86;57.00;100610.75;4847552;28;123990;-69
2023/07/25 07:34:17;;;;;;;;;;;;;;;20.01;57.11;100609.41;4849618;29;119610;-69
2023/07/25 07:36:44;;;;;;;;;;;;;;;20.18;57.21;100612.44;4854268;28;117790;-69
2023/07/25 07:39:12;;;;;;;;;;;;;;;20.32;57.15;100617.41;4845921;29;124161;-69
2023/07/25 07:41:39;;;;;;;;;;;;;;;20.47;57.06;100625.09;4850870;29;124282;-68
2023/07/25 07:44:06;;;;;;;;;;;;;;;20.58;56.82;100627.66;4847862;29;120920;-69
2023/07/25 07:46:34;;;;;;;;;;;;;;;20.67;56.76;100621.47;4845129;29;120236;-69
2023/07/25 07:49:02;;;;;;;;;;;;;;;20.76;56.66;100630.56;4852377;29;124487;-68
2023/07/25 07:51:29;;;;;;;;;;;;;;;20.83;56.46;100630.84;4851422;29;124668;-69
2023/07/25 07:53:57;;;;;;;;;;;;;;;20.85;56.41;100628.84;4847630;28;119269;-69
2023/07/25 07:56:23;;;;;;;;;;;;;;;20.86;56.46;100628.72;4843920;28;118788;-68
2023/07/25 07:58:54;;;;;;;;;;;;;;;20.93;56.31;100637.94;4853828;28;124069;-68
2023/07/25 08:01:21;;;;;;;;;;;;;;;21.00;56.36;100638.19;4851460;28;124215;-68
2023/07/25 08:03:49;;;;;;;;;;;;;;;21.11;56.36;100645.28;4860991;28;119552;-68
2023/07/25 08:06:16;;;;;;;;;;;;;;;21.18;56.31;100641.88;4848183;28;118954;-69
2023/07/25 08:08:43;;;;;;;;;;;;;;;21.24;56.24;100645.00;4845198;29;123973;-69
2023/07/25 08:11:10;;;;;;;;;;;;;;;21.27;56.09;100639.34;4854920;28;124682;-68
2023/07/25 08:13:37;;;;;;;;;;;;;;;21.28;55.96;100646.41;4853417;28;119627;-68
2023/07/25 08:16:05;;;;;;;;;;;;;;;21.26;55.83;100640.31;4854824;29;119551;-68
2023/07/25 08:18:32;;;;;;;;;;;;;;;21.20;55.68;100642.59;4845122;28;125322;-69
2023/07/25 08:20:59;;;;;;;;;;;;;;;21.15;55.57;100647.56;4854710;28;124409;-68
2023/07/25 08:23:26;;;;;;;;;;;;;;;21.09;55.61;100653.50;4845020;28;119466;-68
2023/07/25 08:25:56;;;;;;;;;;;;;;;21.04;55.60;100654.91;4850224;28;119623;-69
2023/07/25 08:28:24;;;;;;;;;;;;;;;20.97;55.46;100654.66;4851208;29;124725;-69
2023/07/25 08:30:59;;;;;;;;;;;;;;;20.91;55.65;100656.06;4850201;29;123129;-69
2023/07/25 08:33:34;;;;;;;;;;;;;;;20.85;55.56;100655.75;4851201;29;120113;-68
2023/07/25 08:36:02;;;;;;;;;;;;;;;20.78;55.54;100661.72;4845510;28;118870;-69
2023/07/25 08:38:29;;;;;;;;;;;;;;;20.74;55.57;100659.47;4849159;28;124299;-68
2023/07/25 08:41:10;;;;;;;;;;;;;;;20.72;55.69;100656.03;4845436;29;125156;-69
2023/07/25 08:43:38;;;;;;;;;;;;;;;20.73;55.76;100658.59;4846929;28;117675;-68
2023/07/25 08:46:06;;;;;;;;;;;;;;;20.75;55.79;100656.59;4850116;29;119027;-69
2023/07/25 08:48:34;;;;;;;;;;;;;;;20.80;55.90;100659.75;4848260;28;124315;-68
2023/07/25 08:51:02;;;;;;;;;;;;;;;20.91;56.15;100668.69;4854581;29;125654;-68
2023/07/25 08:53:30;;;;;;;;;;;;;;;21.03;56.17;100666.69;4844980;28;119524;-68
2023/07/25 08:55:58;;;;;;;;;;;;;;;21.14;56.05;100667.41;4855903;29;118841;-69
2023/07/25 08:58:26;;;;;;;;;;;;;;;21.23;56.06;100671.09;4862706;28;124454;-69
2023/07/25 09:00:54;;;;;;;;;;;;;;;21.32;56.07;100675.63;4848628;28;124494;-68
2023/07/25 09:03:21;;;;;;;;;;;;;;;21.41;55.95;100673.91;4850280;29;119665;-68
2023/07/25 09:05:48;;;;;;;;;;;;;;;21.49;55.80;100670.50;4844735;28;118931;-68
2023/07/25 09:08:15;;;;;;;;;;;;;;;21.53;55.71;100667.41;4849589;29;124631;-68
2023/07/25 09:10:43;;;;;;;;;;;;;;;21.58;55.65;100670.50;4848971;28;124743;-68
2023/07/25 09:13:10;;;;;;;;;;;;;;;21.63;55.61;100671.94;4843854;29;119240;-69
2023/07/25 09:15:39;;;;;;;;;;;;;;;21.69;55.58;100676.72;4828338;29;117904;-69
2023/07/25 09:18:06;;;;;;;;;;;;;;;21.75;55.57;100681.53;4844795;28;124638;-69
2023/07/25 09:20:33;;;;;;;;;;;;;;;21.82;55.47;100682.66;4850598;28;124741;-68
2023/07/25 09:23:02;;;;;;;;;;;;;;;21.86;55.49;100677.81;4832685;29;119324;-69
2023/07/25 09:25:29;;;;;;;;;;;;;;;21.90;55.40;100674.66;4849709;28;120517;-68
2023/07/25 09:27:56;;;;;;;;;;;;;;;21.94;55.29;100678.78;4844941;29;124108;-68
2023/07/25 09:30:26;;;;;;;;;;;;;;;21.99;55.25;100677.50;4852231;29;124995;-69
2023/07/25 09:32:53;;;;;;;;;;;;;;;22.03;55.41;100681.59;4845118;28;119844;-68
2023/07/25 09:35:21;;;;;;;;;;;;;;;22.11;55.27;100687.09;4845966;29;118673;-68
2023/07/25 09:37:55;;;;;;;;;;;;;;;22.16;55.23;100684.81;4850606;29;124432;-68
2023/07/25 09:40:22;;;;;;;;;;;;;;;22.25;55.21;100693.88;4854496;28;125161;-68
2023/07/25 09:42:51;;;;;;;;;;;;;;;22.31;55.17;100688.75;4853172;28;120487;-69
2023/07/25 09:45:19;;;;;;;;;;;;;;;22.34;55.07;100688.44;4848189;28;118663;-69
2023/07/25 09:47:49;;;;;;;;;;;;;;;22.33;54.93;100697.53;4850337;28;124199;-68
2023/07/25 09:50:16;;;;;;;;;;;;;;;22.29;54.62;100701.53;4847608;28;123702;-68
2023/07/25 09:52:44;;;;;;;;;;;;;;;22.19;54.52;100699.84;4849191;29;119538;-70
2023/07/25 09:55:11;;;;;;;;;;;;;;;22.06;54.39;100706.44;4847386;28;119293;-68
2023/07/25 09:57:38;;;;;;;;;;;;;;;21.95;54.53;100699.34;4840103;28;123861;-68
2023/07/25 10:00:06;;;;;;;;;;;;;;;21.85;54.55;100698.53;4850571;29;124823;-68
2023/07/25 10:02:33;;;;;;;;;;;;;;;21.78;54.55;100702.81;4844600;29;119993;-68
2023/07/25 10:05:01;;;;;;;;;;;;;;;21.72;54.63;100698.00;4845476;29;119172;-68
2023/07/25 10:07:30;;;;;;;;;;;;;;;21.66;54.65;100699.44;4849677;29;123678;-69
2023/07/25 10:09:57;;;;;;;;;;;;;;;21.62;54.72;100702.56;4843439;29;123778;-69
2023/07/25 10:12:24;;;;;;;;;;;;;;;21.64;54.84;100705.97;4848573;28;120655;-68
2023/07/25 10:14:51;;;;;;;;;;;;;;;21.70;55.07;100699.97;4847812;29;120772;-69
2023/07/25 10:17:18;;;;;;;;;;;;;;;21.78;55.26;100702.81;4847494;28;124633;-68
2023/07/25 10:19:46;;;;;;;;;;;;;;;21.89;55.20;100689.16;4847779;28;124060;-68
2023/07/25 10:22:13;;;;;;;;;;;;;;;22.02;55.32;100693.38;4852413;29;119724;-69
2023/07/25 10:24:40;;;;;;;;;;;;;;;22.12;55.24;100694.19;4851009;29;118017;-68
2023/07/25 10:27:11;;;;;;;;;;;;;;;22.20;55.13;100691.59;4852505;28;123487;-69
2023/07/25 10:29:42;;;;;;;;;;;;;;;22.30;54.83;100697.84;4848559;28;125035;-69
2023/07/25 10:32:13;;;;;;;;;;;;;;;22.37;54.84;100697.25;4845993;29;119418;-69
2023/07/25 10:34:48;;;;;;;;;;;;;;;22.50;55.03;100684.25;4848355;28;118897;-69
2023/07/25 10:37:18;;;;;;;;;;;;;;;22.66;55.16;100687.16;4851933;29;124052;-69
2023/07/25 10:39:45;;;;;;;;;;;;;;;22.79;54.87;100691.31;4848923;28;124935;-69
2023/07/25 10:42:15;;;;;;;;;;;;;;;22.81;54.46;100694.72;4845087;29;119223;-69
2023/07/25 10:44:42;;;;;;;;;;;;;;;22.73;54.10;100696.34;4844031;29;118948;-68
2023/07/25 10:47:35;;;;;;;;;;;;;;;22.60;53.84;100697.69;4851873;28;125352;-69
2023/07/25 10:50:03;;;;;;;;;;;;;;;22.42;53.74;100689.56;4846192;29;124987;-69
2023/07/25 10:52:43;;;;;;;;;;;;;;;22.29;53.72;100698.00;4852079;29;120246;-69
2023/07/25 10:55:13;;;;;;;;;;;;;;;22.17;53.81;100697.31;4849765;28;118886;-69
2023/07/25 10:57:40;;;;;;;;;;;;;;;22.11;53.91;100689.78;4844365;29;123922;-69
2023/07/25 11:00:08;;;;;;;;;;;;;;;22.05;54.08;100687.69;4852017;28;124004;-69
2023/07/25 11:02:36;;;;;;;;;;;;;;;22.01;54.11;100691.69;4852055;29;120745;-69
2023/07/25 11:05:20;;;;;;;;;;;;;;;21.99;54.13;100680.19;4851695;29;120680;-69
2023/07/25 11:07:48;;;;;;;;;;;;;;;21.97;54.00;100675.78;4852923;29;123844;-69
2023/07/25 11:10:19;;;;;;;;;;;;;;;22.03;54.37;100673.50;4845648;28;123197;-69
2023/07/25 11:12:57;;;;;;;;;;;;;;;22.14;54.52;100676.00;4852015;29;119372;-69
2023/07/25 11:15:24;;;;;;;;;;;;;;;22.25;54.55;100683.94;4853442;29;118952;-68
2023/07/25 11:18:11;;;;;;;;;;;;;;;22.33;54.35;100688.59;4846241;28;125092;-68
2023/07/25 11:20:38;;;;;;;;;;;;;;;22.32;53.97;100685.06;4834420;29;125029;-68
2023/07/25 11:23:05;;;;;;;;;;;;;;;22.30;53.91;100687.06;4845728;28;119932;-68
2023/07/25 11:25:32;;;;;;;;;;;;;;;22.25;53.85;100678.56;4850770;29;118880;-68
2023/07/25 11:27:59;;;;;;;;;;;;;;;22.28;54.02;100686.38;4849169;29;124169;-68
2023/07/25 11:30:26;;;;;;;;;;;;;;;22.38;54.18;100677.34;4846052;28;123816;-68
2023/07/25 11:32:54;;;;;;;;;;;;;;;22.49;54.16;100669.03;4846629;28;119435;-68
2023/07/25 11:35:24;;;;;;;;;;;;;;;22.65;54.26;100673.78;4851336;29;119036;-68
2023/07/25 11:37:57;;;;;;;;;;;;;;;22.77;53.99;100680.66;4850553;29;125225;-69
2023/07/25 11:40:27;;;;;;;;;;;;;;;22.82;53.84;100678.34;4848627;29;124298;-68
2023/07/25 11:42:56;;;;;;;;;;;;;;;22.82;53.63;100670.25;4849302;29;119691;-69
2023/07/25 11:45:23;;;;;;;;;;;;;;;22.81;53.52;100675.81;4849030;29;118787;-69
2023/07/25 11:47:53;;;;;;;;;;;;;;;22.82;53.29;100691.03;4850010;29;124179;-69
2023/07/25 11:50:20;;;;;;;;;;;;;;;22.83;53.58;100692.69;4843345;28;124163;-69
2023/07/25 11:52:56;;;;;;;;;;;;;;;22.83;53.38;100687.28;4852595;28;120582;-69
2023/07/25 11:55:25;;;;;;;;;;;;;;;22.85;53.39;100690.69;4847808;28;120088;-68
2023/07/25 11:57:52;;;;;;;;;;;;;;;22.92;53.65;100681.84;4850896;29;124290;-69
2023/07/25 12:00:20;;;;;;;;;;;;;;;23.05;53.71;100676.06;4848874;29;123674;-69
2023/07/25 12:02:47;;;;;;;;;;;;;;;23.19;53.71;100698.16;4850936;29;119816;-69
2023/07/25 12:05:27;;;;;;;;;;;;;;;23.31;53.52;100686.09;4846928;29;118779;-69
2023/07/25 12:08:00;;;;;;;;;;;;;;;23.43;53.44;100690.28;4847920;29;125053;-69
2023/07/25 12:10:37;;;;;;;;;;;;;;;23.52;52.97;100681.19;4843963;28;124015;-69
2023/07/25 12:13:08;;;;;;;;;;;;;;;23.63;53.05;100679.25;4850208;28;120443;-69
2023/07/25 12:15:43;;;;;;;;;;;;;;;23.69;52.95;100679.47;4848151;29;118722;-68
2023/07/25 12:18:29;;;;;;;;;;;;;;;23.72;52.53;100683.72;4842228;29;123448;-69
2023/07/25 12:20:58;;;;;;;;;;;;;;;23.76;52.48;100681.56;4845899;28;124667;-69
2023/07/25 12:23:27;;;;;;;;;;;;;;;23.80;52.84;100691.91;4847621;29;120808;-68
2023/07/25 12:25:54;;;;;;;;;;;;;;;23.87;52.68;100679.44;4852357;28;119159;-69
2023/07/25 12:28:22;;;;;;;;;;;;;;;23.94;52.47;100681.50;4842200;29;124018;-69
2023/07/25 12:30:50;;;;;;;;;;;;;;;23.98;52.40;100699.09;4845128;28;125719;-69
2023/07/25 12:33:17;;;;;;;;;;;;;;;23.94;51.99;100700.44;4846969;29;119364;-69